.
WxDataArchive / Data Records for 2011-05-14
2011-05-13 May 2011 2011-05-15

Data Records for Saturday, 14 May 2011

Time	Temp	Chill	HIndex	Humid	Dewpt	 Wind 	HiWind	WindDir	Rain 	Barom 
-----	----	-----	------	-----	-----	------	------	-------	-----	----- 
00:00	64.5	64.5	64.5	86	60.2	0	0	---	0.00	29.633 
00:05	64.3	64.3	64.3	87	60.3	0	0	---	0.00	29.633 
00:10	64.3	64.3	64.3	87	60.3	0	0	---	0.00	29.633 
00:15	64.3	64.3	64.3	87	60.3	0	0	---	0.00	29.635 
00:20	64.3	64.3	64.3	88	60.7	0	1	338	0.00	29.635 
00:25	64.5	64.5	64.5	88	60.9	0	1	338	0.00	29.635 
00:30	64.3	64.3	64.3	88	60.7	0	1	338	0.00	29.632 
00:35	64.3	64.3	64.3	88	60.7	0	0	---	0.00	29.632 
00:40	64.2	64.2	64.2	89	60.9	0	0	---	0.00	29.632 
00:45	64.0	64.0	64.0	89	60.7	0	0	---	0.00	29.622 
00:50	63.9	63.9	63.9	90	60.9	0	1	338	0.00	29.622 
00:55	63.7	63.7	63.7	89	60.4	0	1	338	0.00	29.622 
01:00	63.7	63.7	63.7	90	60.7	0	0	---	0.00	29.625 
01:05	63.5	63.5	63.5	90	60.5	0	0	---	0.00	29.625 
01:10	63.5	63.5	63.5	90	60.5	0	0	---	0.00	29.625 
01:15	63.4	63.4	63.4	90	60.4	0	0	---	0.00	29.624 
01:20	63.4	63.4	63.4	90	60.4	0	0	---	0.00	29.624 
01:25	63.2	63.2	63.2	90	60.2	0	0	---	0.01	29.624 
01:30	63.2	63.2	63.2	91	60.5	0	0	---	0.00	29.626 
01:35	63.1	63.1	63.1	91	60.4	0	0	---	0.00	29.626 
01:40	63.1	63.1	63.1	91	60.4	0	0	---	0.00	29.626 
01:45	63.1	63.1	63.1	91	60.4	0	0	---	0.00	29.622 
01:50	62.9	62.9	62.9	91	60.2	0	0	---	0.00	29.622 
01:55	62.9	62.9	62.9	91	60.2	0	0	---	0.00	29.622 
02:00	62.9	62.9	62.9	92	60.5	0	0	---	0.00	29.620 
02:05	62.9	62.9	62.9	92	60.5	0	0	---	0.00	29.620 
02:10	62.9	62.9	62.9	92	60.5	0	0	---	0.00	29.620 
02:15	62.9	62.9	62.9	92	60.5	0	0	---	0.00	29.617 
02:20	62.9	62.9	62.9	92	60.5	0	0	---	0.00	29.617 
02:25	62.9	62.9	62.9	92	60.5	0	0	---	0.00	29.617 
02:30	62.9	62.9	62.9	92	60.5	0	0	---	0.00	29.611 
02:35	62.7	62.7	62.7	92	60.3	0	0	---	0.00	29.611 
02:40	62.7	62.7	62.7	93	60.6	0	0	---	0.00	29.611 
02:45	62.7	62.7	62.7	93	60.6	0	0	---	0.00	29.618 
02:50	62.7	62.7	62.7	93	60.6	0	0	---	0.00	29.618 
02:55	62.7	62.7	62.7	93	60.6	0	0	---	0.00	29.618 
03:00	62.7	62.7	62.7	93	60.6	0	0	---	0.00	29.617 
03:05	62.7	62.7	62.7	93	60.6	0	0	---	0.00	29.617 
03:10	62.7	62.7	62.7	93	60.6	0	0	---	0.00	29.617 
03:15	62.7	62.7	62.7	93	60.6	0	0	---	0.00	29.610 
03:20	62.7	62.7	62.7	93	60.6	0	0	---	0.00	29.610 
03:25	62.6	62.6	62.6	93	60.5	0	0	---	0.00	29.610 
03:30	62.6	62.6	62.6	93	60.5	0	0	---	0.00	29.608 
03:35	62.6	62.6	62.6	93	60.5	0	0	---	0.00	29.608 
03:40	62.6	62.6	62.6	93	60.5	0	0	---	0.00	29.608 
03:45	62.6	62.6	62.6	93	60.5	0	0	---	0.00	29.603 
03:50	62.4	62.4	62.4	93	60.3	0	0	---	0.00	29.603 
03:55	62.4	62.4	62.4	93	60.3	0	0	---	0.00	29.603 
04:00	62.4	62.4	62.4	94	60.6	0	0	---	0.00	29.602 
04:05	62.6	62.6	62.6	94	60.8	0	0	---	0.00	29.602 
04:10	62.4	62.4	62.4	93	60.3	0	0	---	0.00	29.602 
04:15	62.4	62.4	62.4	94	60.6	0	0	---	0.00	29.607 
04:20	62.4	62.4	62.4	94	60.6	0	0	---	0.00	29.607 
04:25	62.4	62.4	62.4	94	60.6	0	0	---	0.00	29.607 
04:30	62.3	62.3	62.3	94	60.5	0	0	---	0.00	29.606 
04:35	62.3	62.3	62.3	94	60.5	0	0	---	0.00	29.606 
04:40	62.3	62.3	62.3	94	60.5	0	0	---	0.00	29.606 
04:45	62.3	62.3	62.3	94	60.5	0	0	---	0.00	29.600 
04:50	62.3	62.3	62.3	94	60.5	0	0	---	0.00	29.600 
04:55	62.3	62.3	62.3	94	60.5	0	0	---	0.00	29.600 
05:00	62.1	62.1	62.1	94	60.3	0	0	---	0.00	29.607 
05:05	62.3	62.3	62.3	94	60.5	0	0	---	0.00	29.607 
05:10	62.3	62.3	62.3	94	60.5	0	0	---	0.00	29.607 
05:15	62.3	62.3	62.3	94	60.5	0	0	---	0.00	29.608 
05:20	62.4	62.4	62.4	94	60.6	0	0	---	0.00	29.608 
05:25	62.4	62.4	62.4	94	60.6	0	0	---	0.00	29.608 
05:30	62.4	62.4	62.4	94	60.6	0	0	---	0.00	29.610 
05:35	62.4	62.4	62.4	94	60.6	0	0	---	0.00	29.610 
05:40	62.4	62.4	62.4	94	60.6	0	0	---	0.00	29.610 
05:45	62.4	62.4	62.4	94	60.6	0	0	---	0.00	29.610 
05:50	62.4	62.4	62.4	94	60.6	0	0	---	0.00	29.610 
05:55	62.4	62.4	62.4	94	60.6	0	0	---	0.00	29.610 
06:00	62.4	62.4	62.4	94	60.6	0	0	---	0.00	29.611 
06:05	62.4	62.4	62.4	94	60.6	0	0	---	0.00	29.611 
06:10	62.4	62.4	62.4	94	60.6	0	0	---	0.00	29.611 
06:15	62.6	62.6	62.6	94	60.8	0	0	---	0.00	29.615 
06:20	62.4	62.4	62.4	94	60.6	0	0	---	0.00	29.615 
06:25	62.4	62.4	62.4	94	60.6	0	0	---	0.00	29.615 
06:30	62.4	62.4	62.4	94	60.6	0	0	---	0.00	29.614 
06:35	62.4	62.4	62.4	94	60.6	0	0	---	0.00	29.614 
06:40	62.4	62.4	62.4	94	60.6	0	0	---	0.00	29.614 
06:45	62.4	62.4	62.4	94	60.6	0	0	---	0.00	29.614 
06:50	62.3	62.3	62.3	94	60.5	0	0	---	0.00	29.614 
06:55	62.3	62.3	62.3	94	60.5	0	0	---	0.00	29.614 
07:00	62.3	62.3	62.3	94	60.5	0	0	---	0.00	29.613 
07:05	62.3	62.3	62.3	94	60.5	0	0	---	0.00	29.613 
07:10	62.3	62.3	62.3	94	60.5	0	0	---	0.00	29.613 
07:15	62.4	62.4	62.4	95	60.9	0	1	338	0.00	29.616 
07:20	62.4	62.4	62.4	95	60.9	0	0	---	0.00	29.616 
07:25	62.6	62.6	62.6	95	61.1	0	1	338	0.00	29.616 
07:30	62.7	62.7	62.7	95	61.2	0	1	338	0.00	29.620 
07:35	62.9	62.9	62.9	95	61.4	0	1	338	0.00	29.620 
07:40	63.1	63.1	63.1	95	61.6	0	2	338	0.00	29.620 
07:45	63.1	63.1	63.1	95	61.6	2	6	90	0.00	29.627 
07:50	63.2	63.2	63.2	95	61.7	1	3	90	0.00	29.627 
07:55	63.4	63.4	63.4	94	61.6	1	3	90	0.00	29.627 
08:00	63.4	63.4	63.4	94	61.6	2	5	90	0.00	29.625 
08:05	63.9	63.9	63.9	93	61.8	1	4	90	0.00	29.625 
08:10	64.2	64.2	64.2	93	62.1	1	4	90	0.00	29.625 
08:15	64.3	64.3	64.3	92	61.9	2	5	90	0.00	29.625 
08:20	64.3	64.3	64.3	92	61.9	1	4	90	0.00	29.625 
08:25	64.7	64.7	64.7	92	62.3	2	4	90	0.00	29.625 
08:30	64.7	64.7	64.7	92	62.3	1	3	90	0.00	29.630 
08:35	64.5	64.5	64.5	92	62.1	1	3	90	0.00	29.630 
08:40	64.7	64.7	64.7	92	62.3	0	1	90	0.00	29.630 
08:45	64.8	64.8	64.8	92	62.4	0	1	90	0.00	29.628 
08:50	65.2	65.2	65.2	91	62.5	0	1	90	0.00	29.628 
08:55	65.3	65.3	65.3	91	62.6	1	3	90	0.00	29.628 
09:00	65.8	65.8	65.8	90	62.8	1	3	90	0.00	29.628 
09:05	66.4	66.4	66.4	88	62.7	2	5	90	0.00	29.628 
09:10	66.9	66.9	66.9	88	63.2	1	4	90	0.00	29.628 
09:15	67.1	67.1	67.1	86	62.8	1	3	90	0.00	29.638 
09:20	67.3	67.3	67.3	86	63.0	0	3	90	0.00	29.638 
09:25	67.1	67.1	67.1	86	62.8	1	4	90	0.00	29.638 
09:30	66.9	66.9	66.9	86	62.6	1	4	90	0.00	29.630 
09:35	66.9	66.9	66.9	86	62.6	1	5	90	0.00	29.630 
09:40	67.1	67.1	67.1	86	62.8	0	2	90	0.00	29.630 
09:45	67.1	67.1	67.1	86	62.8	0	2	90	0.00	29.633 
09:50	67.1	67.1	67.1	85	62.4	0	3	90	0.00	29.633 
09:55	67.1	67.1	67.1	85	62.4	1	3	90	0.00	29.633 
10:00	66.9	66.9	66.9	85	62.2	1	4	90	0.00	29.632 
10:05	66.9	66.9	66.9	86	62.6	0	3	135	0.00	29.632 
10:10	66.9	66.9	66.9	85	62.2	1	3	135	0.00	29.632 
10:15	66.9	66.9	66.9	85	62.2	1	3	135	0.00	29.633 
10:20	66.9	66.9	66.9	85	62.2	0	2	135	0.00	29.633 
10:25	67.1	67.1	67.1	85	62.4	0	2	135	0.00	29.633 
10:30	67.3	67.3	67.3	84	62.3	0	2	90	0.00	29.630 
10:35	67.4	67.4	67.4	84	62.4	0	3	90	0.00	29.630 
10:40	67.6	67.6	67.6	84	62.6	0	2	90	0.00	29.630 
10:45	67.9	67.9	67.9	83	62.5	1	4	90	0.00	29.627 
10:50	68.3	68.3	68.3	82	62.6	1	3	90	0.00	29.627 
10:55	68.9	68.9	68.9	81	62.8	1	4	90	0.00	29.627 
11:00	68.9	68.9	68.9	80	62.5	1	5	112	0.00	29.626 
11:05	69.1	69.1	69.1	80	62.7	2	6	112	0.00	29.626 
11:10	69.1	69.1	69.1	81	63.0	2	5	68	0.00	29.626 
11:15	68.8	68.8	68.8	80	62.4	2	5	68	0.00	29.627 
11:20	68.6	68.6	68.6	81	62.5	2	4	90	0.00	29.627 
11:25	68.9	68.9	68.9	81	62.8	2	4	90	0.00	29.627 
11:30	69.1	69.1	69.1	80	62.7	2	5	112	0.00	29.624 
11:35	69.4	69.4	69.4	79	62.6	2	4	112	0.00	29.624 
11:40	69.8	69.8	69.8	80	63.3	2	5	90	0.00	29.624 
11:45	70.3	70.3	70.3	79	63.5	1	3	90	0.00	29.622 
11:50	71.1	71.1	71.1	78	63.9	1	4	90	0.00	29.622 
11:55	71.8	71.8	71.8	75	63.4	2	5	90	0.00	29.622 
12:00	72.0	72.0	72.0	75	63.6	2	6	90	0.00	29.617 
12:05	71.6	71.6	71.6	74	62.9	2	4	112	0.00	29.617 
12:10	71.1	71.1	71.1	77	63.5	2	4	112	0.00	29.617 
12:15	70.8	70.8	70.8	76	62.8	2	4	112	0.00	29.615 
12:20	70.8	70.8	70.8	76	62.8	2	5	90	0.00	29.615 
12:25	70.6	70.6	70.6	76	62.7	1	5	112	0.00	29.615 
12:30	70.6	70.6	70.6	76	62.7	1	4	112	0.00	29.610 
12:35	70.3	70.3	70.3	76	62.4	2	6	90	0.00	29.610 
12:40	70.1	70.1	70.1	75	61.8	3	6	68	0.00	29.610 
12:45	70.3	70.3	70.3	75	62.0	2	4	90	0.00	29.606 
12:50	70.9	70.9	70.9	75	62.6	1	3	68	0.00	29.606 
12:55	71.8	71.8	71.8	73	62.7	1	6	68	0.00	29.606 
13:00	72.5	72.5	72.5	73	63.3	1	4	90	0.00	29.596 
13:05	72.7	72.7	72.7	71	62.7	2	4	90	0.00	29.596 
13:10	72.8	72.8	72.8	72	63.2	2	5	90	0.00	29.596 
13:15	72.5	72.5	72.5	71	62.5	3	6	90	0.00	29.590 
13:20	72.1	72.1	72.1	74	63.3	2	4	90	0.00	29.590 
13:25	71.8	71.8	71.8	70	61.5	3	6	112	0.00	29.590 
13:30	72.0	72.0	72.0	69	61.3	2	3	112	0.00	29.581 
13:35	71.8	71.8	71.8	67	60.2	2	6	90	0.00	29.581 
13:40	71.8	71.8	71.8	68	60.7	1	3	112	0.00	29.581 
13:45	71.8	71.8	71.8	68	60.7	1	5	112	0.00	29.582 
13:50	71.3	71.3	71.3	65	58.9	1	5	90	0.00	29.582 
13:55	71.1	71.1	71.1	67	59.6	1	4	90	0.00	29.582 
14:00	70.9	70.9	70.9	71	61.0	0	2	90	0.00	29.573 
14:05	70.6	70.6	70.6	75	62.3	1	3	90	0.05	29.573 
14:10	69.3	69.3	69.3	81	63.2	2	4	90	0.10	29.573 
14:15	68.1	68.1	68.1	84	63.1	0	3	90	0.00	29.580 
14:20	67.4	67.4	67.4	86	63.1	0	1	90	0.00	29.580 
14:25	67.1	67.1	67.1	87	63.1	0	0	---	0.00	29.580 
14:30	66.8	66.8	66.8	87	62.8	0	0	---	0.01	29.571 
14:35	66.6	66.6	66.6	88	62.9	0	0	---	0.01	29.571 
14:40	66.3	66.3	66.3	89	63.0	0	1	90	0.00	29.571 
14:45	66.1	66.1	66.1	89	62.8	0	0	---	0.01	29.587 
14:50	65.8	65.8	65.8	89	62.5	0	1	90	0.00	29.587 
14:55	64.8	64.8	64.8	88	61.2	0	1	90	0.00	29.587 
15:00	64.5	64.5	64.5	87	60.5	0	0	---	0.00	29.589 
15:05	64.5	64.5	64.5	86	60.2	1	3	90	0.00	29.589 
15:10	64.3	64.3	64.3	87	60.3	0	3	112	0.00	29.589 
15:15	64.3	64.3	64.3	87	60.3	0	0	---	0.00	29.592 
15:20	64.3	64.3	64.3	87	60.3	0	1	112	0.00	29.592 
15:25	64.8	64.8	64.8	88	61.2	0	3	112	0.00	29.592 
15:30	65.2	65.2	65.2	87	61.2	0	3	112	0.00	29.587 
15:35	65.6	65.6	65.6	84	60.6	0	2	112	0.00	29.587 
15:40	65.6	65.6	65.6	80	59.3	1	4	90	0.00	29.587 
15:45	65.8	65.8	65.8	79	59.1	0	1	90	0.00	29.575 
15:50	66.1	66.1	66.1	79	59.4	0	0	---	0.00	29.575 
15:55	66.4	66.4	66.4	78	59.3	0	0	---	0.00	29.575 
16:00	66.6	66.6	66.6	78	59.5	0	0	---	0.00	29.571 
16:05	66.8	66.8	66.8	76	59.0	0	2	90	0.00	29.571 
16:10	66.9	66.9	66.9	75	58.7	1	2	90	0.00	29.571 
16:15	67.1	67.1	67.1	76	59.3	0	2	90	0.00	29.571 
16:20	67.1	67.1	67.1	77	59.6	0	2	90	0.00	29.571 
16:25	67.1	67.1	67.1	77	59.6	0	2	90	0.00	29.571 
16:30	66.9	66.9	66.9	77	59.4	1	3	90	0.01	29.578 
16:35	67.1	67.1	67.1	79	60.4	3	10	90	0.00	29.578 
16:40	66.8	66.8	66.8	81	60.8	3	5	112	0.00	29.578 
16:45	66.1	66.1	66.1	82	60.4	3	7	90	0.00	29.583 
16:50	65.5	65.5	65.5	82	59.9	4	8	90	0.00	29.583 
16:55	65.2	65.2	65.2	84	60.2	3	7	112	0.00	29.583 
17:00	64.7	64.7	64.7	83	59.4	3	6	112	0.00	29.586 
17:05	64.5	64.5	64.5	83	59.2	3	6	90	0.00	29.586 
17:10	64.2	64.2	64.2	83	58.9	2	5	112	0.00	29.586 
17:15	64.2	64.2	64.2	84	59.3	2	8	112	0.00	29.577 
17:20	64.0	64.0	64.0	84	59.1	2	5	90	0.00	29.577 
17:25	64.0	64.0	64.0	86	59.7	2	7	90	0.00	29.577 
17:30	64.0	64.0	64.0	86	59.7	2	5	90	0.00	29.577 
17:35	64.0	64.0	64.0	88	60.4	2	6	112	0.00	29.577 
17:40	64.0	64.0	64.0	88	60.4	1	3	135	0.00	29.577 
17:45	63.9	63.9	63.9	88	60.3	1	5	112	0.00	29.580 
17:50	63.7	63.7	63.7	87	59.8	0	2	90	0.00	29.580 
17:55	63.7	63.7	63.7	87	59.8	1	3	112	0.00	29.580 
18:00	63.5	63.5	63.5	87	59.6	1	3	135	0.00	29.582 
18:05	63.5	63.5	63.5	87	59.6	1	3	135	0.00	29.582 
18:10	63.4	63.4	63.4	88	59.8	0	1	135	0.00	29.582 
18:15	63.2	63.2	63.2	87	59.3	0	4	68	0.00	29.586 
18:20	63.2	63.2	63.2	88	59.6	0	4	135	0.00	29.586 
18:25	63.1	63.1	63.1	88	59.5	0	2	158	0.00	29.586 
18:30	63.1	63.1	63.1	88	59.5	0	3	158	0.00	29.582 
18:35	63.1	63.1	63.1	88	59.5	1	4	112	0.00	29.582 
18:40	63.1	63.1	63.1	89	59.8	0	2	135	0.00	29.582 
18:45	62.9	62.9	62.9	89	59.6	0	1	135	0.00	29.584 
18:50	62.9	62.9	62.9	88	59.3	1	5	135	0.00	29.584 
18:55	62.9	62.9	62.9	88	59.3	1	5	112	0.00	29.584 
19:00	62.9	62.9	62.9	88	59.3	0	4	112	0.00	29.576 
19:05	62.9	62.9	62.9	89	59.6	0	2	112	0.00	29.576 
19:10	62.9	62.9	62.9	89	59.6	0	1	112	0.00	29.576 
19:15	62.9	62.9	62.9	89	59.6	1	3	112	0.00	29.572 
19:20	62.9	62.9	62.9	89	59.6	1	3	135	0.00	29.572 
19:25	62.9	62.9	62.9	89	59.6	1	4	112	0.00	29.572 
19:30	62.7	62.7	62.7	89	59.4	1	4	112	0.00	29.564 
19:35	62.6	62.6	62.6	89	59.3	1	6	68	0.00	29.564 
19:40	62.6	62.6	62.6	89	59.3	0	3	68	0.00	29.564 
19:45	62.4	62.4	62.4	89	59.1	0	3	135	0.00	29.560 
19:50	62.3	62.3	62.3	89	59.0	1	4	68	0.00	29.560 
19:55	62.1	62.1	62.1	89	58.8	2	6	90	0.00	29.560 
20:00	62.0	62.0	62.0	89	58.7	1	3	112	0.00	29.561 
20:05	61.8	61.8	61.8	88	58.2	1	6	68	0.00	29.561 
20:10	61.6	61.6	61.6	89	58.3	1	7	112	0.00	29.561 
20:15	61.5	61.5	61.5	89	58.2	1	4	90	0.00	29.558 
20:20	61.3	61.3	61.3	89	58.0	1	4	90	0.00	29.558 
20:25	61.3	61.3	61.3	90	58.3	1	4	135	0.00	29.558 
20:30	61.2	61.2	61.2	90	58.2	0	2	135	0.00	29.562 
20:35	61.2	61.2	61.2	90	58.2	0	1	135	0.00	29.562 
20:40	60.9	60.9	60.9	90	57.9	1	3	135	0.00	29.562 
20:45	60.7	60.7	60.7	90	57.7	1	2	135	0.00	29.568 
20:50	60.5	60.5	60.5	91	57.9	0	4	135	0.00	29.568 
20:55	60.4	60.4	60.4	90	57.4	0	3	135	0.00	29.568 
21:00	60.2	60.2	60.2	90	57.3	1	4	112	0.00	29.573 
21:05	59.9	59.9	59.9	90	57.0	0	3	90	0.00	29.573 
21:10	59.8	59.8	59.8	90	56.9	1	4	112	0.00	29.573 
21:15	59.6	59.6	59.6	90	56.7	1	5	112	0.00	29.586 
21:20	59.2	59.2	59.2	90	56.3	1	5	135	0.00	29.586 
21:25	59.0	59.0	59.0	90	56.1	0	2	135	0.00	29.586 
21:30	58.7	58.7	58.7	90	55.8	0	3	135	0.00	29.599 
21:35	58.4	58.4	58.4	90	55.5	0	3	135	0.00	29.599 
21:40	58.3	58.3	58.3	90	55.4	0	4	90	0.00	29.599 
21:45	58.0	58.0	58.0	90	55.1	0	2	90	0.00	29.605 
21:50	57.5	57.5	57.5	90	54.6	0	3	112	0.00	29.605 
21:55	57.2	57.2	57.2	90	54.3	0	1	112	0.00	29.605 
22:00	57.0	57.0	57.0	90	54.1	0	1	112	0.00	29.607 
22:05	56.9	56.9	56.9	91	54.3	0	2	112	0.00	29.607 
22:10	56.7	56.7	56.7	91	54.1	0	3	112	0.00	29.607 
22:15	56.7	56.7	56.7	91	54.1	0	1	112	0.00	29.617 
22:20	56.6	56.6	56.6	91	54.0	0	2	112	0.00	29.617 
22:25	56.5	56.5	56.5	91	53.9	0	5	112	0.00	29.617 
22:30	56.3	56.3	56.3	92	54.0	0	1	135	0.00	29.621 
22:35	56.2	56.2	56.2	92	53.9	0	1	135	0.00	29.621 
22:40	56.0	56.0	56.0	92	53.7	0	2	135	0.00	29.621 
22:45	55.7	55.7	55.7	92	53.4	0	2	135	0.01	29.621 
22:50	55.7	55.7	55.7	92	53.4	0	1	135	0.00	29.621 
22:55	55.4	55.4	55.4	92	53.1	0	2	135	0.00	29.621 
23:00	55.1	55.1	55.1	92	52.8	0	2	135	0.01	29.620 
23:05	55.0	55.0	55.0	92	52.7	0	1	135	0.00	29.620 
23:10	54.7	54.7	54.7	93	52.7	0	3	248	0.01	29.620 
23:15	54.5	54.5	54.5	93	52.5	0	2	270	0.00	29.610 
23:20	54.4	54.4	54.4	93	52.4	0	3	338	0.00	29.610 
23:25	54.2	54.2	54.2	93	52.2	0	2	315	0.00	29.610 
23:30	54.1	54.1	54.1	93	52.1	0	3	315	0.00	29.605 
23:35	53.9	53.9	53.9	93	51.9	0	2	315	0.00	29.605 
23:40	53.8	53.8	53.8	94	52.1	0	2	315	0.00	29.605 
23:45	53.6	53.6	53.6	94	51.9	1	3	248	0.00	29.605 
23:50	53.3	53.3	53.3	94	51.6	0	2	338	0.00	29.605 
23:55	53.3	53.3	53.3	94	51.6	0	2	338	0.00	29.605 

CoCoRaHS
IN-AL-39
A2 Web Hosting
Creative Commons License
GoDaddy
search engine by freefind advanced

loaded 2018-11-15 15:38:15 • last modified 2010-11-18 10:43:29
Privacy PolicyDisclaimer
• wx.awcolley.com is powered by PmWiki v.2002016 •
• all content (unless otherwise noted) © 2018 A W Colley